createdAt,value
2023-01-09T00:02:20.324Z,7.92
2023-01-09T00:04:49.715Z,7.94
2023-01-09T00:07:17.903Z,7.99
2023-01-09T00:09:47.286Z,7.94
2023-01-09T00:12:15.147Z,7.95
2023-01-09T00:14:43.121Z,7.93
2023-01-09T00:17:11.457Z,7.96
2023-01-09T00:19:39.386Z,7.94
2023-01-09T00:22:09.584Z,7.96
2023-01-09T00:24:37.862Z,7.94
2023-01-09T00:27:05.991Z,8.02
2023-01-09T00:29:34.131Z,7.97
2023-01-09T00:32:02.530Z,8.14
2023-01-09T00:34:30.494Z,8.05
2023-01-09T00:36:58.422Z,8.13
2023-01-09T00:39:28.108Z,8.10
2023-01-09T00:41:58.593Z,8.21
2023-01-09T00:44:33.730Z,8.20
2023-01-09T00:47:07.868Z,8.23
2023-01-09T00:49:38.629Z,8.17
2023-01-09T00:52:10.551Z,8.19
2023-01-09T00:54:40.690Z,8.15
2023-01-09T00:57:09.331Z,8.16
2023-01-09T00:59:37.393Z,8.15
2023-01-09T01:02:06.105Z,8.19
2023-01-09T01:04:51.992Z,8.13
2023-01-09T01:07:37.534Z,8.11
2023-01-09T01:10:10.567Z,8.11
2023-01-09T01:12:39.420Z,8.10
2023-01-09T01:15:08.749Z,8.16
2023-01-09T01:17:37.405Z,8.11
2023-01-09T01:20:07.581Z,8.18
2023-01-09T01:22:35.774Z,8.13
2023-01-09T01:25:03.713Z,8.08
2023-01-09T01:27:33.117Z,8.06
2023-01-09T01:30:01.027Z,8.04
2023-01-09T01:32:28.897Z,8.04
2023-01-09T01:34:57.241Z,8.02
2023-01-09T01:37:25.399Z,8.01
2023-01-09T01:39:53.554Z,8.00
2023-01-09T01:42:21.664Z,7.99
2023-01-09T01:45:13.921Z,8.02
2023-01-09T01:47:54.233Z,7.99
2023-01-09T01:50:31.192Z,8.03
2023-01-09T01:53:08.715Z,8.04
2023-01-09T01:55:40.026Z,8.07
2023-01-09T01:58:11.276Z,8.09
2023-01-09T02:00:44.882Z,8.10
2023-01-09T02:03:17.058Z,8.16
2023-01-09T02:05:45.586Z,8.16
2023-01-09T02:08:14.226Z,8.19
2023-01-09T02:10:43.004Z,8.15
2023-01-09T02:13:12.209Z,8.13
2023-01-09T02:15:51.801Z,8.26
2023-01-09T02:18:31.910Z,8.19
2023-01-09T02:21:04.570Z,8.20
2023-01-09T02:24:18.550Z,8.20
2023-01-09T02:27:03.442Z,8.18
2023-01-09T02:29:55.436Z,8.15
2023-01-09T02:32:38.263Z,8.15
2023-01-09T02:35:18.149Z,8.16
2023-01-09T02:37:55.701Z,8.12
2023-01-09T02:40:29.488Z,8.13
2023-01-09T02:43:00.437Z,8.08
2023-01-09T02:45:28.457Z,8.05
2023-01-09T02:47:57.992Z,8.02
2023-01-09T02:50:35.082Z,8.03
2023-01-09T02:53:34.318Z,8.04
2023-01-09T02:56:33.688Z,8.01
2023-01-09T02:59:32.993Z,7.98
2023-01-09T03:02:17.362Z,7.98
2023-01-09T03:04:59.678Z,8.03
2023-01-09T03:07:34.595Z,8.10
2023-01-09T03:10:10.838Z,8.13
2023-01-09T03:12:42.533Z,8.15
2023-01-09T03:15:15.627Z,8.08
2023-01-09T03:17:47.832Z,8.06
2023-01-09T03:20:21.366Z,8.04
2023-01-09T03:22:56.177Z,8.07
2023-01-09T03:25:25.133Z,8.08
2023-01-09T03:27:59.102Z,8.05
2023-01-09T03:30:28.697Z,8.03
2023-01-09T03:32:56.828Z,8.05
2023-01-09T03:35:27.421Z,8.04
2023-01-09T03:37:55.354Z,8.07
2023-01-09T03:40:23.289Z,8.03
2023-01-09T03:42:51.653Z,8.05
2023-01-09T03:45:19.630Z,8.03
2023-01-09T03:47:47.771Z,7.97
2023-01-09T03:50:16.072Z,7.96
2023-01-09T03:52:45.436Z,7.93
2023-01-09T03:55:15.530Z,7.97
2023-01-09T03:57:44.200Z,7.94
2023-01-09T04:00:13.363Z,7.90
2023-01-09T04:02:41.299Z,7.96
2023-01-09T04:05:10.251Z,7.88
2023-01-09T04:07:38.219Z,7.96
2023-01-09T04:10:08.249Z,7.90
2023-01-09T04:12:36.386Z,7.95
2023-01-09T04:15:04.706Z,7.96
2023-01-09T04:17:32.892Z,8.04
2023-01-09T04:20:01.149Z,7.97
2023-01-09T04:22:29.349Z,7.90
2023-01-09T04:24:57.396Z,7.77
2023-01-09T04:27:27.091Z,7.64
2023-01-09T04:29:54.999Z,7.61
2023-01-09T04:32:23.031Z,7.46
2023-01-09T04:34:51.326Z,7.41
2023-01-09T04:37:19.227Z,7.35
2023-01-09T04:39:47.122Z,7.25
2023-01-09T04:42:15.576Z,7.22
2023-01-09T04:44:44.867Z,7.14
2023-01-09T04:47:13.815Z,7.15
2023-01-09T04:49:42.067Z,7.11
2023-01-09T04:52:10.388Z,7.11
2023-01-09T04:54:39.583Z,7.09
2023-01-09T04:57:08.321Z,7.10
2023-01-09T04:59:36.333Z,7.07
2023-01-09T05:02:05.860Z,6.99
2023-01-09T05:04:34.753Z,7.00
2023-01-09T05:07:02.923Z,6.99
2023-01-09T05:09:31.177Z,6.96
2023-01-09T05:12:01.716Z,6.91
2023-01-09T05:14:30.002Z,6.92
2023-01-09T05:16:58.134Z,6.95
2023-01-09T05:19:28.083Z,6.92
2023-01-09T05:21:56.040Z,6.88
2023-01-09T05:24:23.889Z,6.91
2023-01-09T05:26:51.825Z,6.97
2023-01-09T05:29:19.996Z,6.91
2023-01-09T05:31:47.958Z,6.88
2023-01-09T05:34:16.486Z,6.91
2023-01-09T05:36:45.981Z,6.96
2023-01-09T05:39:14.022Z,6.96
2023-01-09T05:41:42.589Z,6.96
2023-01-09T05:44:10.468Z,6.88
2023-01-09T05:46:38.791Z,6.93
2023-01-09T05:49:06.723Z,6.85
2023-01-09T05:51:35.185Z,6.81
2023-01-09T05:54:07.979Z,6.82
2023-01-09T05:56:35.920Z,6.78
2023-01-09T05:59:04.189Z,6.76
2023-01-09T06:01:32.686Z,6.79
2023-01-09T06:04:00.956Z,6.74
2023-01-09T06:06:28.823Z,6.73
2023-01-09T06:08:57.071Z,6.70
2023-01-09T06:11:26.661Z,6.69
2023-01-09T06:13:54.684Z,6.65
2023-01-09T06:16:23.015Z,6.63
2023-01-09T06:18:51.593Z,6.62
2023-01-09T06:21:19.700Z,6.60
2023-01-09T06:23:48.171Z,6.53
2023-01-09T06:26:16.479Z,6.51
2023-01-09T06:28:46.053Z,6.48
2023-01-09T06:31:14.919Z,6.42
2023-01-09T06:33:42.970Z,6.40
2023-01-09T06:36:11.226Z,6.35
2023-01-09T06:38:39.600Z,6.30
2023-01-09T06:41:08.286Z,6.28
2023-01-09T06:43:37.097Z,6.27
2023-01-09T06:46:07.056Z,6.25
2023-01-09T06:48:35.525Z,6.24
2023-01-09T06:51:03.831Z,6.23
2023-01-09T06:53:32.431Z,6.23
2023-01-09T06:56:02.351Z,6.19
2023-01-09T06:58:30.623Z,6.19
2023-01-09T07:00:59.970Z,6.22
2023-01-09T07:03:29.683Z,6.23
2023-01-09T07:05:57.868Z,6.25
2023-01-09T07:08:26.267Z,6.23
2023-01-09T07:10:54.242Z,6.21
2023-01-09T07:13:22.331Z,6.23
2023-01-09T07:15:50.937Z,6.22
2023-01-09T07:18:19.090Z,6.17
2023-01-09T07:20:48.611Z,6.23
2023-01-09T07:23:19.117Z,6.24
2023-01-09T07:25:48.184Z,6.23
2023-01-09T07:28:16.203Z,6.23
2023-01-09T07:30:44.748Z,6.24
2023-01-09T07:33:13.084Z,6.23
2023-01-09T07:35:41.335Z,6.23
2023-01-09T07:38:11.143Z,6.24
2023-01-09T07:40:39.441Z,6.28
2023-01-09T07:43:07.372Z,6.20
2023-01-09T07:45:35.734Z,6.28
2023-01-09T07:48:03.624Z,6.28
2023-01-09T07:50:31.816Z,6.24
2023-01-09T07:53:00.743Z,6.24
2023-01-09T07:55:30.294Z,6.26
2023-01-09T07:57:58.266Z,6.26
2023-01-09T08:00:27.039Z,6.26
2023-01-09T08:02:55.347Z,6.30
2023-01-09T08:05:23.478Z,6.32
2023-01-09T08:07:51.916Z,6.29
2023-01-09T08:10:23.230Z,6.32
2023-01-09T08:12:53.457Z,6.39
2023-01-09T08:15:21.369Z,6.37
2023-01-09T08:17:49.561Z,6.43
2023-01-09T08:20:19.104Z,6.41
2023-01-09T08:22:50.692Z,6.41
2023-01-09T08:25:20.181Z,6.47
2023-01-09T08:27:48.461Z,6.53
2023-01-09T08:30:19.032Z,6.55
2023-01-09T08:32:50.883Z,6.58
2023-01-09T08:35:19.295Z,6.67
2023-01-09T08:37:47.913Z,6.74
2023-01-09T08:40:17.674Z,6.77
2023-01-09T08:43:03.738Z,6.78
2023-01-09T08:45:51.733Z,6.76
2023-01-09T08:48:22.232Z,6.82
2023-01-09T08:50:50.800Z,6.81
2023-01-09T08:53:19.217Z,6.77
2023-01-09T08:55:47.466Z,6.78
2023-01-09T08:58:15.760Z,6.80
2023-01-09T09:00:45.607Z,6.78
2023-01-09T09:03:13.624Z,6.81
2023-01-09T09:05:41.810Z,6.86
2023-01-09T09:08:10.194Z,6.86
2023-01-09T09:10:38.128Z,6.88
2023-01-09T09:13:06.086Z,6.91
2023-01-09T09:15:34.566Z,6.95
2023-01-09T09:18:06.479Z,7.01
2023-01-09T09:20:36.024Z,7.07
2023-01-09T09:23:04.750Z,7.04
2023-01-09T09:25:33.930Z,7.18
2023-01-09T09:28:02.087Z,7.21
2023-01-09T09:30:30.067Z,7.27
2023-01-09T09:32:57.981Z,7.34
2023-01-09T09:35:28.587Z,7.43
2023-01-09T09:37:58.836Z,7.51
2023-01-09T09:40:45.590Z,7.63
2023-01-09T09:43:49.015Z,7.68
2023-01-09T09:46:30.301Z,7.75
2023-01-09T09:49:05.948Z,7.85
2023-01-09T09:51:58.304Z,7.85
2023-01-09T09:54:33.588Z,7.79
2023-01-09T09:57:04.924Z,7.76
2023-01-09T09:59:37.340Z,7.68
2023-01-09T10:02:17.256Z,7.71
2023-01-09T10:04:56.779Z,7.75
2023-01-09T10:07:31.258Z,7.79
2023-01-09T10:10:05.608Z,7.79
2023-01-09T10:12:38.510Z,7.88
2023-01-09T10:15:17.633Z,7.85
2023-01-09T10:17:55.469Z,7.90
2023-01-09T10:20:56.429Z,7.94
2023-01-09T10:23:52.748Z,8.02
2023-01-09T10:26:27.724Z,8.03
2023-01-09T10:29:22.422Z,8.09
2023-01-09T10:32:02.077Z,8.10
2023-01-09T10:34:46.781Z,8.08
2023-01-09T10:37:19.878Z,8.08
2023-01-09T10:39:54.480Z,8.11
2023-01-09T10:42:30.761Z,8.19
2023-01-09T10:45:07.665Z,8.13
2023-01-09T10:47:38.375Z,8.20
2023-01-09T10:50:20.902Z,8.21
2023-01-09T10:52:51.404Z,8.30
2023-01-09T10:55:28.472Z,8.37
2023-01-09T10:58:00.931Z,8.56
2023-01-09T11:00:29.168Z,8.64
2023-01-09T11:02:57.594Z,8.80
2023-01-09T11:05:29.177Z,8.94
2023-01-09T11:08:02.662Z,9.10
2023-01-09T11:13:27.420Z,9.10
2023-01-09T11:16:05.540Z,9.16
2023-01-09T11:18:35.171Z,9.25
2023-01-09T11:21:26.997Z,9.15
2023-01-09T11:23:55.061Z,9.11
2023-01-09T11:26:25.175Z,9.07
2023-01-09T11:29:13.792Z,9.02
2023-01-09T11:31:43.029Z,9.00
2023-01-09T11:34:18.020Z,8.96
2023-01-09T11:36:46.936Z,8.88
2023-01-09T11:39:24.953Z,8.89
2023-01-09T11:41:56.061Z,8.84
2023-01-09T11:44:26.880Z,8.76
2023-01-09T11:46:55.022Z,8.74
2023-01-09T11:49:24.641Z,8.71
2023-01-09T11:52:17.300Z,8.84
2023-01-09T11:54:51.205Z,8.73
2023-01-09T11:57:19.974Z,8.76
2023-01-09T11:59:50.323Z,8.75
2023-01-09T12:02:53.729Z,8.83
2023-01-09T12:05:34.645Z,8.81
2023-01-09T12:08:15.029Z,8.81
2023-01-09T12:11:18.764Z,8.82
2023-01-09T12:14:05.663Z,8.79
2023-01-09T12:16:39.708Z,8.70
2023-01-09T12:19:23.121Z,8.70
2023-01-09T12:21:58.903Z,8.65
2023-01-09T12:24:49.963Z,8.66
2023-01-09T12:27:30.700Z,8.67
2023-01-09T12:30:17.268Z,8.69
2023-01-09T12:32:59.867Z,8.65
2023-01-09T12:35:37.868Z,8.58
2023-01-09T12:38:36.664Z,8.68
2023-01-09T12:41:35.616Z,8.56
2023-01-09T12:44:35.444Z,8.57
2023-01-09T12:47:17.783Z,8.51
2023-01-09T12:49:55.159Z,8.40
2023-01-09T12:52:27.825Z,8.28
2023-01-09T12:55:02.592Z,8.33
2023-01-09T12:57:37.504Z,8.18
2023-01-09T13:00:15.205Z,8.17
2023-01-09T13:02:47.701Z,8.04
2023-01-09T13:05:20.971Z,8.01
2023-01-09T13:07:55.713Z,7.99
2023-01-09T13:10:28.020Z,7.95
2023-01-09T13:12:59.608Z,7.96
2023-01-09T13:15:33.108Z,7.93
2023-01-09T13:18:07.361Z,7.98
2023-01-09T13:20:43.244Z,7.99
2023-01-09T13:23:19.028Z,7.98
2023-01-09T13:25:48.392Z,8.03
2023-01-09T13:28:23.017Z,7.95
2023-01-09T13:31:13.299Z,7.95
2023-01-09T13:33:45.512Z,7.97
2023-01-09T13:36:25.489Z,7.86
2023-01-09T13:38:55.770Z,7.82
2023-01-09T13:41:45.460Z,7.88
2023-01-09T13:44:29.087Z,7.92
2023-01-09T13:46:59.629Z,7.94
2023-01-09T13:49:33.383Z,7.95
2023-01-09T13:52:05.719Z,7.97
2023-01-09T13:55:02.951Z,7.89
2023-01-09T13:57:34.783Z,7.90
2023-01-09T14:00:45.024Z,7.87
2023-01-09T14:03:20.657Z,7.87
2023-01-09T14:06:21.577Z,7.87
2023-01-09T14:09:12.907Z,7.79
2023-01-09T14:11:42.113Z,7.72
2023-01-09T14:14:23.906Z,7.69
2023-01-09T14:16:52.645Z,7.74
2023-01-09T14:19:33.125Z,7.63
2023-01-09T14:22:02.438Z,7.49
2023-01-09T14:24:35.099Z,7.44
2023-01-09T14:27:03.502Z,7.44
2023-01-09T14:29:43.603Z,7.33
2023-01-09T14:32:39.189Z,7.28
2023-01-09T14:35:16.046Z,7.27
2023-01-09T14:37:46.286Z,7.28
2023-01-09T14:40:24.313Z,7.37
2023-01-09T14:42:55.474Z,7.37
2023-01-09T14:45:26.300Z,7.40
2023-01-09T14:47:58.058Z,7.42
2023-01-09T14:50:34.129Z,7.40
2023-01-09T14:53:07.377Z,7.31
2023-01-09T14:55:51.342Z,7.28
2023-01-09T14:58:27.907Z,7.25
2023-01-09T15:01:02.347Z,7.22
2023-01-09T15:03:37.817Z,7.30
2023-01-09T15:06:07.133Z,7.20
2023-01-09T15:08:35.513Z,7.17
2023-01-09T15:11:05.443Z,7.22
2023-01-09T15:13:36.366Z,7.15
2023-01-09T15:16:07.296Z,7.08
2023-01-09T15:18:43.236Z,7.03
2023-01-09T15:21:25.275Z,7.02
2023-01-09T15:23:53.842Z,7.01
2023-01-09T15:26:29.643Z,7.00
2023-01-09T15:29:03.050Z,6.98
2023-01-09T15:31:31.958Z,6.98
2023-01-09T15:34:00.488Z,6.98
2023-01-09T15:36:31.168Z,6.95
2023-01-09T15:39:00.784Z,6.91
2023-01-09T15:41:49.230Z,6.87
2023-01-09T15:44:22.144Z,6.96
2023-01-09T15:46:51.891Z,6.97
2023-01-09T15:49:20.609Z,7.07
2023-01-09T15:51:50.599Z,6.82
2023-01-09T15:54:22.341Z,6.67
2023-01-09T15:56:52.150Z,6.33
2023-01-09T15:59:30.466Z,6.13
2023-01-09T16:02:15.636Z,6.06
2023-01-09T16:04:43.834Z,5.96
2023-01-09T16:07:16.949Z,5.89
2023-01-09T16:09:50.126Z,5.89
2023-01-09T16:12:23.375Z,5.83
2023-01-09T16:14:54.334Z,5.85
2023-01-09T16:17:26.993Z,5.81
2023-01-09T16:19:58.152Z,5.78
2023-01-09T16:22:29.183Z,5.82
2023-01-09T16:24:58.709Z,5.83
2023-01-09T16:27:31.797Z,5.87
2023-01-09T16:30:01.305Z,5.87
2023-01-09T16:32:31.697Z,5.84
2023-01-09T16:35:04.654Z,5.94
2023-01-09T16:37:34.557Z,5.88
2023-01-09T16:40:25.260Z,5.91
2023-01-09T16:43:03.989Z,5.91
2023-01-09T16:45:37.542Z,5.94
2023-01-09T16:48:16.359Z,5.96
2023-01-09T16:50:45.558Z,5.93
2023-01-09T16:53:17.831Z,6.00
2023-01-09T16:55:46.479Z,5.98
2023-01-09T16:58:19.712Z,6.01
2023-01-09T17:00:48.029Z,6.03
2023-01-09T17:03:17.707Z,6.07
2023-01-09T17:05:46.613Z,6.09
2023-01-09T17:08:22.331Z,6.12
2023-01-09T17:10:50.693Z,6.09
2023-01-09T17:13:20.833Z,6.10
2023-01-09T17:15:49.531Z,6.10
2023-01-09T17:18:20.104Z,6.15
2023-01-09T17:20:53.171Z,6.09
2023-01-09T17:23:22.568Z,6.05
2023-01-09T17:26:10.028Z,6.04
2023-01-09T17:28:43.472Z,6.04
2023-01-09T17:31:13.136Z,6.04
2023-01-09T17:33:43.143Z,6.04
2023-01-09T17:36:23.281Z,6.04
2023-01-09T17:38:55.369Z,6.06
2023-01-09T17:41:24.341Z,6.03
2023-01-09T17:43:54.110Z,6.04
2023-01-09T17:46:29.090Z,6.01
2023-01-09T17:48:57.422Z,6.03
2023-01-09T17:51:25.868Z,6.06
2023-01-09T17:53:54.100Z,6.01
2023-01-09T17:56:24.544Z,6.07
2023-01-09T17:58:54.468Z,6.02
2023-01-09T18:01:23.089Z,6.00
2023-01-09T18:03:51.118Z,5.99
2023-01-09T18:06:21.060Z,5.99
2023-01-09T18:08:49.472Z,6.04
2023-01-09T18:11:19.954Z,5.99
2023-01-09T18:13:50.142Z,6.04
2023-01-09T18:16:23.937Z,5.98
2023-01-09T18:18:52.508Z,6.02
2023-01-09T18:21:23.552Z,5.96
2023-01-09T18:23:52.156Z,5.99
2023-01-09T18:26:22.121Z,5.91
2023-01-09T18:28:52.120Z,5.91
2023-01-09T18:31:24.396Z,5.91
2023-01-09T18:33:54.133Z,5.87
2023-01-09T18:36:25.119Z,5.90
2023-01-09T18:38:53.754Z,5.88
2023-01-09T18:41:25.495Z,5.87
2023-01-09T18:43:54.857Z,5.86
2023-01-09T18:46:25.363Z,5.86
2023-01-09T18:48:54.291Z,5.86
2023-01-09T18:51:23.045Z,5.96
2023-01-09T18:53:52.200Z,5.88
2023-01-09T18:56:20.638Z,5.83
2023-01-09T18:58:49.289Z,5.78
2023-01-09T19:01:18.330Z,5.81
2023-01-09T19:03:47.840Z,5.73
2023-01-09T19:06:16.193Z,5.77
2023-01-09T19:08:44.321Z,5.77
2023-01-09T19:11:12.788Z,5.77
2023-01-09T19:13:40.895Z,5.77
2023-01-09T19:16:10.169Z,5.72
2023-01-09T19:18:40.338Z,5.71
2023-01-09T19:21:15.615Z,5.70
2023-01-09T19:23:44.852Z,5.68
2023-01-09T19:26:22.640Z,5.62
2023-01-09T19:28:51.953Z,5.73
2023-01-09T19:31:20.161Z,5.78
2023-01-09T19:33:48.480Z,5.68
2023-01-09T19:36:20.232Z,5.69
2023-01-09T19:38:48.584Z,5.71
2023-01-09T19:41:23.318Z,5.65
2023-01-09T19:43:52.675Z,5.72
2023-01-09T19:46:25.568Z,5.74
2023-01-09T19:48:58.749Z,5.74
2023-01-09T19:51:32.086Z,5.67
2023-01-09T19:56:30.371Z,5.61
2023-01-09T19:59:00.261Z,5.61
2023-01-09T20:01:33.738Z,5.60
2023-01-09T20:04:05.080Z,5.57
2023-01-09T20:06:37.474Z,5.57
2023-01-09T20:09:07.685Z,5.57
2023-01-09T20:11:36.260Z,5.60
2023-01-09T20:14:04.664Z,5.62
2023-01-09T20:16:33.047Z,5.58
2023-01-09T20:19:07.458Z,5.59
2023-01-09T20:21:37.499Z,5.57
2023-01-09T20:24:07.625Z,5.56
2023-01-09T20:26:37.691Z,5.53
2023-01-09T20:29:05.644Z,5.52
2023-01-09T20:31:34.674Z,5.51
2023-01-09T20:34:03.207Z,5.52
2023-01-09T20:36:32.369Z,5.51
2023-01-09T20:39:03.322Z,5.55
2023-01-09T20:41:31.751Z,5.57
2023-01-09T20:44:02.297Z,5.63
2023-01-09T20:46:34.870Z,5.62
2023-01-09T20:49:03.605Z,5.60
2023-01-09T20:51:32.105Z,5.61
2023-01-09T20:54:02.081Z,5.54
2023-01-09T20:56:31.746Z,5.54
2023-01-09T20:59:00.410Z,5.52
2023-01-09T21:01:30.488Z,5.59
2023-01-09T21:03:59.044Z,5.55
2023-01-09T21:06:28.787Z,5.53
2023-01-09T21:08:57.241Z,5.55
2023-01-09T21:11:26.528Z,5.53
2023-01-09T21:13:54.528Z,5.56
2023-01-09T21:16:25.099Z,5.57
2023-01-09T21:18:55.258Z,5.55
2023-01-09T21:21:26.728Z,5.61
2023-01-09T21:23:56.731Z,5.58
2023-01-09T21:26:30.967Z,5.58
2023-01-09T21:29:02.005Z,5.57
2023-01-09T21:31:35.045Z,5.58
2023-01-09T21:34:04.802Z,5.57
2023-01-09T21:36:33.302Z,5.55
2023-01-09T21:39:01.851Z,5.56
2023-01-09T21:41:49.101Z,5.56
2023-01-09T21:44:34.755Z,5.55
2023-01-09T21:47:04.125Z,5.52
2023-01-09T21:49:35.393Z,5.53
2023-01-09T21:52:04.957Z,5.53
2023-01-09T21:54:34.015Z,5.54
2023-01-09T21:57:04.491Z,5.52
2023-01-09T21:59:32.556Z,5.53
2023-01-09T22:02:00.661Z,5.50
2023-01-09T22:04:31.658Z,5.51
2023-01-09T22:07:02.390Z,5.45
2023-01-09T22:09:30.640Z,5.46
2023-01-09T22:11:59.000Z,5.44
2023-01-09T22:14:28.456Z,5.43
2023-01-09T22:16:56.411Z,5.45
2023-01-09T22:19:26.172Z,5.46
2023-01-09T22:21:55.697Z,5.46
2023-01-09T22:24:23.762Z,5.46
2023-01-09T22:26:51.920Z,5.47
2023-01-09T22:29:20.063Z,5.45
2023-01-09T22:31:49.751Z,5.44
2023-01-09T22:34:19.253Z,5.46
2023-01-09T22:36:47.971Z,5.46
2023-01-09T22:39:18.783Z,5.49
2023-01-09T22:41:51.371Z,5.44
2023-01-09T22:44:19.730Z,5.47
2023-01-09T22:46:49.145Z,5.47
2023-01-09T22:49:17.089Z,5.48
2023-01-09T22:51:45.682Z,5.51
2023-01-09T22:54:13.965Z,5.50
2023-01-09T22:56:41.887Z,5.49
2023-01-09T22:59:10.659Z,5.48
2023-01-09T23:01:38.875Z,5.49
2023-01-09T23:04:08.892Z,5.49
2023-01-09T23:06:37.144Z,5.49
2023-01-09T23:09:05.157Z,5.47
2023-01-09T23:11:50.435Z,5.46
2023-01-09T23:14:18.760Z,5.47
2023-01-09T23:16:46.796Z,5.42
2023-01-09T23:19:16.608Z,5.44
2023-01-09T23:21:46.232Z,5.43
2023-01-09T23:24:15.510Z,5.49
2023-01-09T23:26:43.933Z,5.45
2023-01-09T23:29:12.781Z,5.45
2023-01-09T23:31:41.375Z,5.49
2023-01-09T23:34:09.561Z,5.46
2023-01-09T23:36:38.893Z,5.50
2023-01-09T23:39:10.143Z,5.53
2023-01-09T23:41:54.802Z,5.57
2023-01-09T23:44:22.816Z,5.55
2023-01-09T23:46:50.820Z,5.49
2023-01-09T23:49:18.874Z,5.50
2023-01-09T23:51:48.600Z,5.46
2023-01-09T23:54:17.398Z,5.44
2023-01-09T23:56:45.540Z,5.40
2023-01-09T23:59:15.665Z,5.41
